Time;durP1;ratioP1;P1;durP2;ratioP2;P2;SDS_P1;SDS_P2;PMS_P1;PMS_P2;Temp;Humidity;BMP_temperature;BMP_pressure;BME280_temperature;BME280_humidity;BME280_pressure;Samples;Min_cycle;Max_cycle;Signal;HPM_P1;HPM_P2
2021/11/04 00:00:34;;;;;;;13.53;7.93;;;;;;;10.44;74.08;99814.28;1459673;89;21427;-87
2021/11/04 00:03:02;;;;;;;12.13;8.27;;;;;;;10.46;74.50;99826.86;1465120;89;21383;-87
2021/11/04 00:05:31;;;;;;;11.53;8.07;;;;;;;10.48;74.25;99818.78;1461720;89;21450;-87
2021/11/04 00:08:03;;;;;;;11.83;7.17;;;;;;;10.48;74.46;99813.49;1464246;89;21508;-87
2021/11/04 00:10:27;;;;;;;11.60;8.07;;;;;;;10.48;74.66;99816.14;1462614;89;22366;-87
2021/11/04 00:12:54;;;;;;;11.93;8.73;;;;;;;10.46;74.66;99804.88;1460103;89;21457;-86
2021/11/04 00:15:22;;;;;;;12.67;8.00;;;;;;;10.46;75.07;99807.02;1467623;89;21345;-87
2021/11/04 00:17:49;;;;;;;11.60;8.43;;;;;;;10.46;74.96;99793.80;1447963;89;21487;-87
2021/11/04 00:20:18;;;;;;;36.60;9.80;;;;;;;10.43;75.40;99784.86;1467254;89;21383;-87
2021/11/04 00:22:47;;;;;;;14.50;7.40;;;;;;;10.40;76.10;99783.87;1460696;89;21331;-87
2021/11/04 00:25:17;;;;;;;11.00;7.87;;;;;;;10.39;75.68;99777.75;1461012;89;21464;-87
2021/11/04 00:27:44;;;;;;;9.45;7.28;;;;;;;10.38;76.21;99768.14;1461140;89;21412;-87
2021/11/04 00:30:12;;;;;;;10.63;7.50;;;;;;;10.36;76.40;99762.71;1463426;89;22781;-87
2021/11/04 00:32:53;;;;;;;11.13;7.80;;;;;;;10.35;76.74;99761.03;1448018;89;22478;-87
2021/11/04 00:35:21;;;;;;;10.32;7.62;;;;;;;10.32;76.99;99749.45;1476783;89;21586;-85
2021/11/04 00:37:49;;;;;;;13.67;8.57;;;;;;;10.32;77.47;99758.72;1459647;89;22293;-85
2021/11/04 00:40:21;;;;;;;9.63;8.03;;;;;;;10.31;77.02;99755.25;1464689;89;23282;-88
2021/11/04 00:42:49;;;;;;;11.80;8.50;;;;;;;10.33;76.88;99756.42;1461197;89;22380;-87
2021/11/04 00:45:16;;;;;;;11.07;8.13;;;;;;;10.35;76.87;99765.00;1461462;89;21390;-88
2021/11/04 00:47:43;;;;;;;13.53;7.50;;;;;;;10.32;77.92;99766.65;1461808;89;22440;-87
2021/11/04 00:50:10;;;;;;;12.40;7.77;;;;;;;10.33;77.04;99762.53;1412450;92;22292;-86
2021/11/04 00:52:38;;;;;;;10.63;7.87;;;;;;;10.36;77.20;99758.24;1461445;89;21368;-86
2021/11/04 00:55:07;;;;;;;11.27;7.03;;;;;;;10.35;77.33;99747.31;1459593;89;21486;-86
2021/11/04 00:57:35;;;;;;;12.23;7.80;;;;;;;10.37;77.06;99726.82;1406004;93;21556;-86
2021/11/04 01:00:07;;;;;;;12.47;7.23;;;;;;;10.37;77.39;99730.79;1465772;89;21512;-87
2021/11/04 01:02:34;;;;;;;9.40;6.73;;;;;;;10.38;76.81;99728.46;1458515;89;21413;-86
2021/11/04 01:05:02;;;;;;;10.90;7.27;;;;;;;10.39;77.25;99722.20;1446588;89;21478;-86
2021/11/04 01:07:29;;;;;;;13.23;7.43;;;;;;;10.42;76.94;99721.05;1464084;89;21471;-88
2021/11/04 01:09:56;;;;;;;10.30;7.37;;;;;;;10.43;77.09;99727.98;1459960;89;21405;-88
2021/11/04 01:12:23;;;;;;;11.10;6.60;;;;;;;10.45;77.26;99724.69;1459580;89;22381;-88
2021/11/04 01:14:51;;;;;;;12.63;7.70;;;;;;;10.47;77.20;99724.04;1411052;92;22308;-87
2021/11/04 01:17:20;;;;;;;12.30;7.60;;;;;;;10.49;77.18;99729.16;1455791;89;21479;-87
2021/11/04 01:19:47;;;;;;;10.03;6.03;;;;;;;10.51;77.22;99727.17;1457090;89;22372;-88
2021/11/04 01:22:14;;;;;;;10.83;8.10;;;;;;;10.51;77.73;99720.56;1405291;92;21368;-88
2021/11/04 01:24:41;;;;;;;8.13;5.77;;;;;;;10.54;77.44;99710.97;1459261;89;21443;-88
2021/11/04 01:27:09;;;;;;;13.43;7.07;;;;;;;10.54;77.78;99706.50;1464118;89;21398;-87
2021/11/04 01:29:36;;;;;;;10.33;6.97;;;;;;;10.57;77.57;99700.05;1459445;89;21368;-87
2021/11/04 01:32:04;;;;;;;8.50;6.23;;;;;;;10.58;77.66;99685.32;1460299;89;21420;-87
2021/11/04 01:34:31;;;;;;;9.43;6.03;;;;;;;10.61;77.48;99675.73;1458466;89;22484;-87
2021/11/04 01:36:59;;;;;;;7.63;5.97;;;;;;;10.63;77.85;99678.22;1429759;91;21471;-87
2021/11/04 01:39:26;;;;;;;13.80;6.50;;;;;;;10.63;77.78;99678.22;1460552;89;21613;-87
2021/11/04 01:41:53;;;;;;;8.93;6.30;;;;;;;10.70;77.34;99673.08;1462969;89;22528;-88
2021/11/04 01:44:20;;;;;;;9.83;6.00;;;;;;;10.73;77.27;99672.27;1459638;89;22469;-86
2021/11/04 01:46:50;;;;;;;9.43;6.37;;;;;;;10.74;78.24;99662.00;1460116;89;22284;-87
2021/11/04 01:49:17;;;;;;;8.93;6.67;;;;;;;10.76;77.43;99662.67;1465027;89;21538;-88
2021/11/04 01:51:45;;;;;;;8.43;5.87;;;;;;;10.77;78.00;99655.05;1463220;89;21442;-87
2021/11/04 01:54:13;;;;;;;11.93;6.77;;;;;;;10.80;77.59;99658.69;1429607;91;21361;-87
2021/11/04 01:56:41;;;;;;;8.90;6.20;;;;;;;10.80;77.80;99665.30;1461856;89;21369;-88
2021/11/04 01:59:09;;;;;;;8.73;5.53;;;;;;;10.84;77.21;99667.94;1461774;89;21471;-87
2021/11/04 02:01:37;;;;;;;10.17;5.40;;;;;;;10.84;77.52;99653.38;1465553;89;21331;-88
2021/11/04 02:04:31;;;;;;;9.60;6.40;;;;;;;10.87;77.16;99661.48;1460329;89;21515;-87
2021/11/04 02:07:04;;;;;;;8.20;4.90;;;;;;;10.93;76.71;99663.95;1453156;89;21421;-88
2021/11/04 02:09:48;;;;;;;8.30;5.63;;;;;;;10.95;76.72;99671.23;1451104;89;22609;-88
2021/11/04 02:12:22;;;;;;;12.23;5.73;;;;;;;10.97;76.36;99674.55;1452547;90;21420;-88
2021/11/04 02:14:54;;;;;;;8.63;6.10;;;;;;;10.99;76.38;99684.45;1443280;90;22308;-87
2021/11/04 02:17:23;;;;;;;10.50;6.00;;;;;;;11.02;76.34;99682.83;1448064;90;21591;-87
2021/11/04 02:19:59;;;;;;;7.83;5.50;;;;;;;11.02;76.13;99683.64;1447870;90;21398;-87
2021/11/04 02:22:38;;;;;;;10.30;5.90;;;;;;;11.05;75.89;99673.22;1446368;90;21355;-88
2021/11/04 02:25:24;;;;;;;8.87;5.40;;;;;;;11.03;76.07;99664.10;1447488;90;21606;-86
2021/11/04 02:27:59;;;;;;;6.23;4.80;;;;;;;11.05;75.67;99674.54;1449615;90;22228;-86
2021/11/04 02:30:29;;;;;;;9.30;5.43;;;;;;;11.05;75.64;99663.95;1449032;90;21480;-87
2021/11/04 02:32:57;;;;;;;12.07;6.10;;;;;;;11.03;76.00;99650.05;1453010;90;21496;-88
2021/11/04 02:35:25;;;;;;;8.93;5.37;;;;;;;10.99;76.37;99635.00;1441210;90;21407;-88
2021/11/04 02:37:54;;;;;;;7.50;5.00;;;;;;;10.99;76.42;99639.45;1475483;88;21367;-90
2021/11/04 02:40:23;;;;;;;8.87;5.37;;;;;;;10.99;76.23;99630.17;1471165;88;21308;-89
2021/11/04 02:42:52;;;;;;;8.57;4.87;;;;;;;10.93;76.55;99628.21;1466870;88;21375;-88
2021/11/04 02:45:24;;;;;;;9.00;6.23;;;;;;;10.93;76.39;99649.39;1477306;88;21404;-88
2021/11/04 02:47:52;;;;;;;7.07;4.83;;;;;;;10.90;76.21;99651.05;1476172;88;22426;-88
2021/11/04 02:50:21;;;;;;;10.57;5.17;;;;;;;10.91;76.10;99646.92;1462179;88;21463;-87
2021/11/04 02:52:48;;;;;;;8.47;5.53;;;;;;;10.91;75.61;99638.98;1477317;88;21243;-88
2021/11/04 02:55:15;;;;;;;11.17;6.63;;;;;;;10.94;75.29;99630.70;1480573;88;21272;-88
2021/11/04 02:57:46;;;;;;;6.70;5.23;;;;;;;10.95;75.07;99632.34;1481593;88;21331;-88
2021/11/04 03:00:17;;;;;;;7.10;5.23;;;;;;;10.99;74.65;99632.35;1486790;88;22691;-86
2021/11/04 03:02:45;;;;;;;7.50;4.92;;;;;;;11.02;74.41;99620.60;1483681;88;22306;-87
2021/11/04 03:05:12;;;;;;;6.70;4.57;;;;;;;10.98;74.17;99615.30;1476208;88;22329;-87
2021/11/04 03:07:39;;;;;;;9.43;4.33;;;;;;;11.02;73.84;99611.33;1430614;91;21496;-87
2021/11/04 03:10:09;;;;;;;6.57;4.80;;;;;;;11.03;73.67;99620.91;1474307;88;21294;-87
2021/11/04 03:12:36;;;;;;;8.40;5.00;;;;;;;11.07;73.76;99617.73;1470509;88;22418;-86
2021/11/04 03:15:08;;;;;;;8.07;4.40;;;;;;;11.07;73.17;99615.59;1479087;88;21604;-87
2021/11/04 03:17:38;;;;;;;9.13;4.57;;;;;;;11.06;73.10;99612.13;1475415;88;22395;-86
2021/11/04 03:20:10;;;;;;;6.40;4.33;;;;;;;11.09;72.87;99624.20;1453929;88;21389;-86
2021/11/04 03:22:39;;;;;;;7.47;4.50;;;;;;;11.14;72.81;99630.33;1484582;88;21494;-86
2021/11/04 03:25:09;;;;;;;7.80;4.90;;;;;;;11.12;72.75;99631.80;1472845;88;21813;-86
2021/11/04 03:27:39;;;;;;;5.97;4.10;;;;;;;11.15;72.50;99635.44;1467298;88;22226;-87
2021/11/04 03:30:08;;;;;;;9.83;4.70;;;;;;;11.17;72.36;99625.50;1471678;88;21441;-87
2021/11/04 03:32:38;;;;;;;6.87;4.43;;;;;;;11.12;72.22;99635.78;1479617;88;21478;-88
2021/11/04 03:35:08;;;;;;;5.57;3.80;;;;;;;11.14;72.22;99635.12;1468195;88;22314;-90
2021/11/04 03:37:40;;;;;;;11.15;4.53;;;;;;;11.17;72.27;99636.09;1472855;88;22557;-90
2021/11/04 03:40:09;;;;;;;5.73;3.77;;;;;;;11.15;72.25;99632.78;1476031;88;22861;-90
2021/11/04 03:42:39;;;;;;;6.13;4.57;;;;;;;11.17;72.20;99637.42;1477003;88;21368;-89
2021/11/04 03:45:09;;;;;;;7.40;4.10;;;;;;;11.16;72.15;99629.63;1477350;88;21412;-89
2021/11/04 03:47:37;;;;;;;6.78;4.90;;;;;;;11.18;72.07;99628.47;1473374;88;21316;-88
2021/11/04 03:50:06;;;;;;;7.37;4.83;;;;;;;11.17;72.04;99634.78;1473534;88;21574;-89
2021/11/04 03:52:33;;;;;;;7.47;4.57;;;;;;;11.20;71.93;99639.73;1475016;88;22275;-88
2021/11/04 03:55:01;;;;;;;7.47;4.53;;;;;;;11.19;71.88;99631.94;1473318;88;22410;-88
2021/11/04 03:57:29;;;;;;;8.77;4.80;;;;;;;11.22;71.87;99640.39;1472531;88;21344;-87
2021/11/04 03:59:56;;;;;;;6.00;4.10;;;;;;;11.21;71.74;99630.77;1474121;88;21360;-88
2021/11/04 04:02:24;;;;;;;7.33;3.93;;;;;;;11.22;71.93;99621.85;1471974;88;21330;-87
2021/11/04 04:04:56;;;;;;;7.93;5.50;;;;;;;11.19;72.06;99622.20;1470511;88;21449;-87
2021/11/04 04:07:29;;;;;;;7.60;3.60;;;;;;;11.21;71.79;99610.91;1470669;88;22432;-88
2021/11/04 04:09:58;;;;;;;5.90;4.07;;;;;;;11.22;71.79;99607.28;1459183;87;21589;-88
2021/11/04 04:12:26;;;;;;;7.03;4.43;;;;;;;11.23;71.48;99598.33;1454047;89;21615;-88
2021/11/04 04:14:54;;;;;;;6.90;4.47;;;;;;;11.23;71.46;99597.00;1460728;89;21522;-87
2021/11/04 04:17:22;;;;;;;8.07;4.30;;;;;;;11.23;71.49;99610.75;1464267;89;21597;-87
2021/11/04 04:19:51;;;;;;;10.23;5.03;;;;;;;11.23;71.25;99611.58;1464544;89;21531;-87
2021/11/04 04:22:19;;;;;;;9.40;5.30;;;;;;;11.24;71.29;99606.59;1463872;88;22521;-87
2021/11/04 04:24:46;;;;;;;7.27;4.93;;;;;;;11.25;71.11;99592.38;1445173;89;21574;-88
2021/11/04 04:27:14;;;;;;;6.93;4.73;;;;;;;11.26;70.96;99594.52;1462381;89;21389;-88
2021/11/04 04:29:41;;;;;;;7.07;5.00;;;;;;;11.26;70.73;99595.34;1462456;88;21384;-86
2021/11/04 04:32:09;;;;;;;8.10;4.30;;;;;;;11.30;70.72;99597.95;1462690;89;21353;-86
2021/11/04 04:34:36;;;;;;;7.80;4.83;;;;;;;11.37;70.55;99597.29;1461521;88;23500;-86
2021/11/04 04:37:03;;;;;;;10.70;5.03;;;;;;;11.36;70.44;99593.79;1457896;89;22524;-87
2021/11/04 04:39:33;;;;;;;7.00;3.77;;;;;;;11.37;70.42;99575.59;1478074;88;21456;-86
2021/11/04 04:42:01;;;;;;;8.13;4.50;;;;;;;11.34;70.08;99566.67;1445365;90;21368;-88
2021/11/04 04:44:28;;;;;;;5.83;4.57;;;;;;;11.37;70.03;99578.24;1476516;88;21425;-87
2021/11/04 04:46:56;;;;;;;5.70;4.20;;;;;;;11.38;70.01;99577.23;1480556;88;21382;-86
2021/11/04 04:49:24;;;;;;;8.03;4.30;;;;;;;11.42;69.93;99583.00;1449936;89;21466;-87
2021/11/04 04:51:51;;;;;;;5.90;3.93;;;;;;;11.42;69.81;99573.73;1479122;88;21345;-87
2021/11/04 04:54:18;;;;;;;5.47;3.97;;;;;;;11.43;69.72;99572.75;1476704;88;21397;-88
2021/11/04 04:56:45;;;;;;;14.13;4.40;;;;;;;11.42;69.79;99558.68;1490089;88;21427;-87
2021/11/04 04:59:12;;;;;;;7.50;4.47;;;;;;;11.43;69.66;99538.30;1471131;88;21359;-87
2021/11/04 05:01:39;;;;;;;11.07;5.43;;;;;;;11.43;69.63;99538.30;1478064;88;21322;-88
2021/11/04 05:04:06;;;;;;;6.93;4.90;;;;;;;11.42;69.52;99533.98;1478330;88;21458;-88
2021/11/04 05:06:34;;;;;;;8.73;5.73;;;;;;;11.41;69.53;99519.92;1452555;90;22307;-88
2021/11/04 05:09:01;;;;;;;9.30;6.33;;;;;;;11.38;69.41;99503.05;1478275;88;21323;-87
2021/11/04 05:11:28;;;;;;;5.73;4.67;;;;;;;11.37;69.41;99497.44;1455146;89;21317;-88
2021/11/04 05:13:55;;;;;;;7.00;4.17;;;;;;;11.35;69.38;99482.21;1469843;88;21331;-88
2021/11/04 05:16:22;;;;;;;10.83;6.03;;;;;;;11.30;69.31;99462.86;1451821;90;21412;-88
2021/11/04 05:18:50;;;;;;;8.33;5.03;;;;;;;11.34;69.30;99467.83;1469242;88;21427;-88
2021/11/04 05:21:17;;;;;;;7.73;5.20;;;;;;;11.30;69.43;99454.91;1478661;88;21404;-86
2021/11/04 05:23:44;;;;;;;10.30;4.73;;;;;;;11.28;69.37;99454.28;1478460;88;21455;-87
2021/11/04 05:26:11;;;;;;;7.10;5.10;;;;;;;11.29;69.38;99438.70;1471046;88;21382;-87
2021/11/04 05:28:38;;;;;;;6.90;4.00;;;;;;;11.27;69.42;99436.72;1476006;88;21434;-87
2021/11/04 05:31:05;;;;;;;5.63;3.97;;;;;;;11.26;69.27;99441.70;1454322;89;22162;-87
2021/11/04 05:33:32;;;;;;;8.53;4.40;;;;;;;11.27;69.03;99452.61;1475803;88;21382;-87
2021/11/04 05:35:59;;;;;;;8.27;5.10;;;;;;;11.26;68.98;99439.05;1481139;88;21308;-87
2021/11/04 05:38:27;;;;;;;6.83;4.07;;;;;;;11.26;68.91;99436.41;1469862;88;21426;-93
2021/11/04 05:40:54;;;;;;;9.70;4.77;;;;;;;11.29;68.84;99440.03;1471169;88;21360;-86
2021/11/04 05:43:21;;;;;;;7.37;4.10;;;;;;;11.29;68.56;99451.95;1473618;88;21404;-88
2021/11/04 05:45:48;;;;;;;8.53;4.33;;;;;;;11.28;68.22;99460.09;1451891;90;22410;-88
2021/11/04 05:48:15;;;;;;;7.33;4.07;;;;;;;11.32;68.49;99461.88;1454577;89;21836;-87
2021/11/04 05:50:42;;;;;;;7.70;4.20;;;;;;;11.35;68.51;99449.60;1453992;90;21404;-87
2021/11/04 05:53:09;;;;;;;7.23;4.37;;;;;;;11.33;67.86;99440.49;1474735;88;21441;-88
2021/11/04 05:55:37;;;;;;;6.43;3.77;;;;;;;11.36;67.83;99435.34;1454784;90;21523;-88
2021/11/04 05:58:04;;;;;;;6.30;3.87;;;;;;;11.38;67.70;99433.35;1456187;90;21383;-88
2021/11/04 06:00:31;;;;;;;11.27;3.53;;;;;;;11.44;67.89;99433.45;1450863;90;21479;-87
2021/11/04 06:02:58;;;;;;;8.63;3.67;;;;;;;11.48;67.55;99436.09;1458228;89;21375;-87
2021/11/04 06:05:25;;;;;;;8.93;4.37;;;;;;;11.49;67.14;99442.21;1453714;89;21471;-87
2021/11/04 06:07:52;;;;;;;8.00;4.53;;;;;;;11.53;67.22;99442.17;1452603;90;21434;-87
2021/11/04 06:10:20;;;;;;;6.30;4.20;;;;;;;11.57;67.12;99439.50;1445718;89;21361;-87
2021/11/04 06:12:47;;;;;;;6.57;4.37;;;;;;;11.59;66.55;99429.52;1455049;90;21383;-87
2021/11/04 06:15:15;;;;;;;6.97;3.73;;;;;;;11.65;66.71;99421.36;1450639;89;21347;-87
2021/11/04 06:17:42;;;;;;;4.67;3.23;;;;;;;11.66;66.11;99417.23;1454317;89;21361;-87
2021/11/04 06:20:09;;;;;;;4.83;3.33;;;;;;;11.71;65.90;99416.19;1443701;90;22954;-87
2021/11/04 06:22:37;;;;;;;5.90;3.50;;;;;;;11.77;65.86;99411.16;1446081;89;22262;-87
2021/11/04 06:25:05;;;;;;;9.43;5.03;;;;;;;11.82;65.85;99411.45;1478535;88;21418;-86
2021/11/04 06:27:33;;;;;;;8.90;3.97;;;;;;;11.83;65.28;99407.30;1445824;88;21448;-87
2021/11/04 06:30:02;;;;;;;6.13;3.97;;;;;;;11.87;64.99;99403.81;1474913;88;21300;-88
2021/11/04 06:32:30;;;;;;;7.37;4.20;;;;;;;11.91;65.18;99401.10;1450642;90;21316;-88
2021/11/04 06:34:58;;;;;;;8.83;4.23;;;;;;;11.96;65.31;99411.48;1450739;90;21397;-85
2021/11/04 06:37:25;;;;;;;5.30;3.53;;;;;;;11.97;64.82;99407.03;1476410;88;21611;-86
2021/11/04 06:39:52;;;;;;;14.03;6.97;;;;;;;11.99;64.55;99396.23;1448046;90;21433;-87
2021/11/04 06:42:19;;;;;;;11.63;7.70;;;;;;;11.99;64.70;99385.12;1419066;90;21398;-88
2021/11/04 06:44:46;;;;;;;11.43;7.23;;;;;;;12.03;64.56;99375.81;1450589;89;21419;-87
2021/11/04 06:47:47;;;;;;;7.70;4.10;;;;;;;12.06;64.42;99367.48;1434734;89;21323;-87
2021/11/04 06:50:18;;;;;;;6.50;4.05;;;;;;;12.08;64.26;99371.27;1453940;90;21415;-87
2021/11/04 06:52:56;;;;;;;10.60;4.33;;;;;;;12.10;64.56;99380.69;1445224;90;21398;-87
2021/11/04 06:55:28;;;;;;;6.77;4.37;;;;;;;12.14;64.36;99408.51;1454656;90;22374;-87
2021/11/04 06:58:03;;;;;;;6.07;3.70;;;;;;;12.20;64.46;99429.50;1450522;90;21361;-89
2021/11/04 07:00:36;;;;;;;8.20;4.23;;;;;;;12.24;64.92;99443.22;1475450;88;21369;-86
2021/11/04 07:03:22;;;;;;;12.87;4.00;;;;;;;12.22;66.32;99443.89;1473108;88;21435;-88
2021/11/04 07:05:54;;;;;;;8.20;4.33;;;;;;;12.13;68.20;99442.65;1486577;88;21352;-88
2021/11/04 07:08:22;;;;;;;9.90;4.07;;;;;;;12.03;70.63;99459.85;1482528;88;21433;-92
2021/11/04 07:10:57;;;;;;;30.83;15.47;;;;;;;11.89;72.01;99440.25;1472671;88;21523;-93
2021/11/04 07:13:31;;;;;;;26.00;13.47;;;;;;;11.72;72.36;99446.17;1454349;89;21663;-93
2021/11/04 07:16:01;;;;;;;39.07;20.97;;;;;;;11.53;74.24;99455.41;1476323;88;21389;-93
2021/11/04 07:18:30;;;;;;;38.80;23.02;;;;;;;11.44;74.69;99449.36;1473234;88;21515;-85
2021/11/04 07:21:08;;;;;;;109.60;55.50;;;;;;;11.39;75.04;99447.73;1480245;88;21540;-86
2021/11/04 07:23:59;;;;;;;17.03;7.83;;;;;;;11.27;78.15;99443.34;1441184;89;21391;-86
2021/11/04 07:26:37;;;;;;;11.67;5.23;;;;;;;11.25;78.30;99468.39;1464615;88;21359;-86
2021/11/04 07:29:08;;;;;;;12.27;4.77;;;;;;;11.16;84.50;99509.13;1467639;88;21390;-86
2021/11/04 07:31:40;;;;;;;;;;;;;;;11.20;84.17;99547.03;1464277;88;21486;-86
2021/11/04 07:34:12;;;;;;;12.83;5.07;;;;;;;11.19;84.16;99570.55;1464768;88;20387;-85
2021/11/04 07:36:41;;;;;;;9.33;5.30;;;;;;;11.24;81.72;99580.61;1466384;88;21493;-88
2021/11/04 07:39:12;;;;;;;9.97;5.57;;;;;;;11.23;79.74;99579.79;1468537;87;21449;-88
2021/11/04 07:41:40;;;;;;;14.90;7.03;;;;;;;11.17;80.64;99600.34;1422336;91;21351;-88
2021/11/04 07:44:07;;;;;;;7.20;4.43;;;;;;;11.11;81.53;99618.75;1461536;88;21661;-87
2021/11/04 07:46:34;;;;;;;10.53;5.27;;;;;;;11.07;79.28;99612.95;1478917;88;21382;-86
2021/11/04 07:49:02;;;;;;;8.73;5.40;;;;;;;11.00;83.78;99618.61;1481264;87;21431;-86
2021/11/04 07:51:30;;;;;;;9.07;5.90;;;;;;;10.89;83.37;99618.97;1482632;87;21485;-88
2021/11/04 07:53:57;;;;;;;12.03;5.97;;;;;;;10.86;82.08;99623.28;1474475;87;21329;-89
2021/11/04 07:56:25;;;;;;;16.00;6.73;;;;;;;10.81;82.67;99612.69;1491302;87;21397;-90
2021/11/04 07:58:52;;;;;;;7.23;5.33;;;;;;;10.79;83.04;99621.81;1482728;87;21411;-89
2021/11/04 08:01:19;;;;;;;26.33;13.73;;;;;;;10.73;85.06;99611.41;1481490;87;21477;-89
2021/11/04 08:03:46;;;;;;;10.33;5.47;;;;;;;10.67;85.31;99603.28;1480131;87;21418;-90
2021/11/04 08:06:16;;;;;;;10.07;5.70;;;;;;;10.59;85.17;99618.20;1478566;87;21278;-89
2021/11/04 08:08:43;;;;;;;10.97;6.30;;;;;;;10.54;85.94;99601.17;1486178;87;21448;-89
2021/11/04 08:11:10;;;;;;;18.93;10.63;;;;;;;10.52;85.11;99605.80;1474376;87;21397;-89
2021/11/04 08:13:39;;;;;;;24.10;15.10;;;;;;;10.54;84.48;99604.64;1458455;88;21397;-90
2021/11/04 08:16:06;;;;;;;43.27;25.43;;;;;;;10.61;84.29;99606.11;1414934;90;21391;-90
2021/11/04 08:18:34;;;;;;;112.07;60.80;;;;;;;10.64;86.02;99600.48;1459220;89;21382;-90
2021/11/04 08:21:02;;;;;;;46.30;26.87;;;;;;;10.65;85.22;99596.86;1438068;91;21419;-89
2021/11/04 08:23:29;;;;;;;29.63;16.67;;;;;;;10.70;85.01;99593.69;1458130;89;21412;-90
2021/11/04 08:25:56;;;;;;;42.87;24.60;;;;;;;10.77;85.05;99579.63;1412558;91;21420;-90
2021/11/04 08:28:23;;;;;;;36.57;18.13;;;;;;;10.86;84.87;99587.55;1458671;89;21397;-92
2021/11/04 08:30:50;;;;;;;23.87;14.33;;;;;;;10.96;84.68;99576.24;1461048;89;21398;-92
2021/11/04 08:33:18;;;;;;;28.83;13.17;;;;;;;10.99;86.15;99569.28;1430702;91;22931;-94
2021/11/04 08:35:45;;;;;;;16.27;7.30;;;;;;;10.96;87.68;99551.09;1444551;89;21420;-95
2021/11/04 08:38:13;;;;;;;13.30;6.60;;;;;;;10.94;87.21;99548.63;1432410;91;21494;-94
2021/11/04 08:40:40;;;;;;;12.37;7.10;;;;;;;10.94;88.00;99554.43;1450911;89;22308;-93
2021/11/04 08:43:07;;;;;;;14.57;6.17;;;;;;;10.99;86.64;99561.34;1459610;89;22471;-95
2021/11/04 08:45:36;;;;;;;25.43;17.33;;;;;;;11.04;86.77;99550.56;1460991;89;22455;-91
2021/11/04 08:48:10;;;;;;;14.30;6.87;;;;;;;11.07;87.63;99562.64;1422982;91;21508;-93
2021/11/04 08:50:38;;;;;;;24.83;17.30;;;;;;;11.07;87.33;99566.61;1446063;89;21368;-93
2021/11/04 08:53:05;;;;;;;20.67;12.87;;;;;;;11.06;87.42;99559.67;1457136;89;21456;-92
2021/11/04 08:55:32;;;;;;;24.60;14.77;;;;;;;11.06;86.68;99541.14;1430634;91;21354;-92
2021/11/04 08:57:59;;;;;;;14.00;10.00;;;;;;;11.07;86.60;99527.70;1463998;89;21390;-93
2021/11/04 09:00:27;;;;;;;16.70;9.77;;;;;;;11.10;86.60;99504.03;1448274;88;21470;-92
2021/11/04 09:02:54;;;;;;;32.00;20.00;;;;;;;11.05;88.52;99506.40;1427019;91;21376;-91
2021/11/04 09:05:21;;;;;;;27.20;14.33;;;;;;;10.99;88.13;99509.23;1428799;91;21553;-90
2021/11/04 09:07:49;;;;;;;38.37;24.53;;;;;;;11.02;87.59;99509.39;1425751;91;21512;-93
2021/11/04 09:10:20;;;;;;;16.80;11.00;;;;;;;11.11;87.38;99516.80;1412574;91;21456;-93
2021/11/04 09:12:45;;;;;;;13.00;6.67;;;;;;;11.20;88.24;99521.87;1412272;91;21441;-92
2021/11/04 09:15:13;;;;;;;36.37;23.57;;;;;;;11.75;87.82;99506.27;1428622;91;21568;-93
2021/11/04 09:17:42;;;;;;;37.33;20.30;;;;;;;12.05;86.89;99528.92;1429332;91;21405;-92
2021/11/04 09:20:13;;;;;;;36.63;20.37;;;;;;;12.32;86.77;99508.96;1426829;91;22439;-93
2021/11/04 09:22:40;;;;;;;10.47;6.93;;;;;;;12.91;85.14;99506.80;1409857;91;21370;-94
2021/11/04 09:25:07;;;;;;;13.77;8.73;;;;;;;13.45;82.39;99514.92;1419606;92;21450;-93
2021/11/04 09:27:35;;;;;;;14.03;8.67;;;;;;;13.19;81.61;99512.77;1428823;91;21568;-94
2021/11/04 09:30:03;;;;;;;8.90;5.97;;;;;;;12.97;81.77;99513.20;1422344;91;21531;-93
2021/11/04 09:32:30;;;;;;;9.77;6.17;;;;;;;12.78;81.34;99514.61;1430985;91;21368;-93
2021/11/04 09:35:00;;;;;;;10.07;5.63;;;;;;;12.71;81.64;99505.72;1426604;91;22292;-93
2021/11/04 09:37:28;;;;;;;10.07;6.93;;;;;;;12.67;82.19;99497.81;1440007;90;22602;-94
2021/11/04 09:39:55;;;;;;;10.60;6.57;;;;;;;12.62;83.17;99495.70;1431541;91;22352;-93
2021/11/04 09:42:24;;;;;;;8.93;5.83;;;;;;;12.77;82.84;99487.72;1471317;88;21374;-94
2021/11/04 09:44:54;;;;;;;7.27;5.27;;;;;;;12.77;83.32;99493.03;1457322;88;21508;-95
2021/11/04 09:47:25;;;;;;;11.68;6.17;;;;;;;12.79;82.85;99496.33;1473789;88;21412;-93
2021/11/04 09:49:54;;;;;;;9.97;5.40;;;;;;;12.79;82.64;99493.67;1427991;91;21406;-95
2021/11/04 09:52:30;;;;;;;29.77;16.60;;;;;;;12.77;83.02;99482.41;1475955;88;21412;-93
2021/11/04 09:54:58;;;;;;;79.73;40.50;;;;;;;12.75;82.97;99477.81;1476210;88;21589;-93
2021/11/04 09:57:27;;;;;;;16.03;11.00;;;;;;;12.76;83.48;99480.77;1472286;88;21619;-93
2021/11/04 09:59:55;;;;;;;18.50;8.87;;;;;;;12.81;82.93;99479.72;1467709;88;21589;-94
2021/11/04 10:02:25;;;;;;;19.37;9.37;;;;;;;12.92;82.96;99475.74;1427157;91;21390;-94
2021/11/04 10:05:03;;;;;;;17.90;10.93;;;;;;;13.22;82.52;99470.69;1474224;88;21448;-93
2021/11/04 10:07:41;;;;;;;74.90;35.03;;;;;;;13.42;82.54;99467.45;1395745;91;21412;-94
2021/11/04 10:10:09;;;;;;;9.23;6.43;;;;;;;13.56;82.01;99463.09;1472562;88;21456;-94
2021/11/04 10:12:42;;;;;;;9.00;5.47;;;;;;;14.00;80.94;99461.00;1470934;88;21485;-94
2021/11/04 10:15:14;;;;;;;12.20;6.70;;;;;;;14.18;80.85;99462.35;1470485;88;21585;-95
2021/11/04 10:17:41;;;;;;;7.70;5.20;;;;;;;14.14;79.06;99450.47;1478549;88;21404;-94
2021/11/04 10:20:20;;;;;;;9.70;6.10;;;;;;;14.32;78.94;99448.11;1473734;88;21338;-93
2021/11/04 10:23:10;;;;;;;11.70;7.10;;;;;;;14.41;78.50;99446.96;1417791;91;21494;-93
2021/11/04 10:25:38;;;;;;;16.10;9.58;;;;;;;14.50;78.22;99437.45;1479198;88;21473;-92
2021/11/04 10:28:30;;;;;;;13.70;8.33;;;;;;;14.64;77.99;99443.19;1476183;87;22754;-92
2021/11/04 10:30:59;;;;;;;26.17;13.97;;;;;;;14.78;77.58;99457.39;1487642;87;21389;-93
2021/11/04 10:33:33;;;;;;;19.53;13.53;;;;;;;14.84;77.50;99444.09;1486546;87;22750;-91
2021/11/04 10:36:14;;;;;;;16.00;8.40;;;;;;;14.93;76.06;99431.94;1483277;87;21361;-92
2021/11/04 10:38:55;;;;;;;11.87;6.60;;;;;;;14.97;76.64;99437.19;1486284;87;21382;-94
2021/11/04 10:41:38;;;;;;;9.07;5.00;;;;;;;15.09;75.28;99431.06;1453451;89;21538;-92
2021/11/04 10:44:17;;;;;;;14.67;6.47;;;;;;;15.20;75.47;99415.52;1436003;89;22499;-94
2021/11/04 10:46:56;;;;;;;10.27;6.27;;;;;;;15.28;75.71;99422.81;1462184;89;21464;-94
2021/11/04 10:49:41;;;;;;;11.70;5.97;;;;;;;15.31;76.16;99409.08;1440346;89;21272;-87
2021/11/04 10:52:09;;;;;;;10.80;5.57;;;;;;;15.30;75.27;99416.75;1456236;89;22373;-87
2021/11/04 10:54:45;;;;;;;12.17;6.87;;;;;;;15.33;74.74;99427.52;1435727;91;21332;-88
2021/11/04 10:57:12;;;;;;;11.50;5.07;;;;;;;15.39;74.90;99433.89;1427118;91;21384;-87
2021/11/04 10:59:47;;;;;;;9.57;5.27;;;;;;;15.49;75.07;99435.66;1441759;91;21549;-87
2021/11/04 11:02:17;;;;;;;8.73;5.30;;;;;;;15.52;75.12;99435.25;1443250;90;21480;-88
2021/11/04 11:04:45;;;;;;;8.80;6.20;;;;;;;15.52;75.10;99452.06;1432364;91;22351;-88
2021/11/04 11:07:13;;;;;;;9.83;4.93;;;;;;;15.53;74.63;99455.55;1433804;90;21465;-88
2021/11/04 11:09:41;;;;;;;11.23;6.80;;;;;;;15.55;74.56;99464.17;1439175;90;21324;-87
2021/11/04 11:12:09;;;;;;;13.03;7.00;;;;;;;15.52;74.26;99457.91;1442664;91;21385;-87
2021/11/04 11:14:39;;;;;;;10.87;5.73;;;;;;;15.49;74.50;99455.66;1437739;91;21333;-88
2021/11/04 11:17:09;;;;;;;9.43;6.53;;;;;;;15.49;74.60;99468.98;1432829;90;22264;-88
2021/11/04 11:19:45;;;;;;;15.00;9.90;;;;;;;15.48;74.85;99471.36;1432803;91;22293;-88
2021/11/04 11:22:17;;;;;;;19.77;11.23;;;;;;;15.49;75.31;99469.80;1443082;90;21627;-88
2021/11/04 11:24:45;;;;;;;20.37;14.37;;;;;;;15.49;75.20;99478.33;1434808;90;21339;-87
2021/11/04 11:27:18;;;;;;;19.77;12.80;;;;;;;15.43;75.60;99479.14;1442861;91;21472;-87
2021/11/04 11:29:48;;;;;;;15.43;8.40;;;;;;;15.41;75.90;99491.32;1441301;91;22811;-87
2021/11/04 11:32:22;;;;;;;15.43;6.47;;;;;;;15.26;77.12;99511.48;1442731;91;21450;-87
2021/11/04 11:34:53;;;;;;;7.70;5.47;;;;;;;15.20;76.81;99538.94;1439817;90;21602;-87
2021/11/04 11:37:23;;;;;;;7.67;4.83;;;;;;;15.09;77.99;99558.16;1432403;91;21561;-86
2021/11/04 11:39:54;;;;;;;7.67;4.55;;;;;;;14.92;78.68;99573.65;1444451;89;22509;-87